sensor_id;sensor_type;location;lat;lon;timestamp;P1;durP1;ratioP1;P2;durP2;ratioP2
15331;SDS011;7766;51.534;6.722;2024-03-29T00:00:33;1.47;;;0.80;;
15331;SDS011;7766;51.534;6.722;2024-03-29T00:02:59;2.80;;;1.30;;
15331;SDS011;7766;51.534;6.722;2024-03-29T00:05:25;4.27;;;1.10;;
15331;SDS011;7766;51.534;6.722;2024-03-29T00:07:50;3.17;;;1.20;;
15331;SDS011;7766;51.534;6.722;2024-03-29T00:10:16;4.53;;;1.33;;
15331;SDS011;7766;51.534;6.722;2024-03-29T00:12:42;3.03;;;1.50;;
15331;SDS011;7766;51.534;6.722;2024-03-29T00:15:08;3.03;;;1.33;;
15331;SDS011;7766;51.534;6.722;2024-03-29T00:17:34;3.53;;;0.80;;
15331;SDS011;7766;51.534;6.722;2024-03-29T00:20:00;3.33;;;1.60;;
15331;SDS011;7766;51.534;6.722;2024-03-29T00:22:27;3.57;;;1.00;;
15331;SDS011;7766;51.534;6.722;2024-03-29T00:24:53;6.37;;;1.77;;
15331;SDS011;7766;51.534;6.722;2024-03-29T00:27:19;1.43;;;0.90;;
15331;SDS011;7766;51.534;6.722;2024-03-29T00:29:44;2.27;;;1.13;;
15331;SDS011;7766;51.534;6.722;2024-03-29T00:32:12;4.43;;;1.53;;
15331;SDS011;7766;51.534;6.722;2024-03-29T00:34:38;3.17;;;1.40;;
15331;SDS011;7766;51.534;6.722;2024-03-29T00:37:04;3.57;;;2.07;;
15331;SDS011;7766;51.534;6.722;2024-03-29T00:39:30;4.73;;;2.30;;
15331;SDS011;7766;51.534;6.722;2024-03-29T00:41:55;5.60;;;2.57;;
15331;SDS011;7766;51.534;6.722;2024-03-29T00:44:21;4.53;;;2.10;;
15331;SDS011;7766;51.534;6.722;2024-03-29T00:46:47;4.87;;;2.50;;
15331;SDS011;7766;51.534;6.722;2024-03-29T00:49:13;5.80;;;3.57;;
15331;SDS011;7766;51.534;6.722;2024-03-29T00:51:38;4.47;;;2.97;;
15331;SDS011;7766;51.534;6.722;2024-03-29T00:54:04;5.37;;;2.37;;
15331;SDS011;7766;51.534;6.722;2024-03-29T00:56:30;2.77;;;1.70;;
15331;SDS011;7766;51.534;6.722;2024-03-29T00:58:56;3.90;;;1.90;;
15331;SDS011;7766;51.534;6.722;2024-03-29T01:01:22;1.90;;;1.20;;
15331;SDS011;7766;51.534;6.722;2024-03-29T01:03:48;2.00;;;1.10;;
15331;SDS011;7766;51.534;6.722;2024-03-29T01:06:14;5.60;;;1.27;;
15331;SDS011;7766;51.534;6.722;2024-03-29T01:08:40;4.00;;;1.17;;
15331;SDS011;7766;51.534;6.722;2024-03-29T01:11:06;2.53;;;0.90;;
15331;SDS011;7766;51.534;6.722;2024-03-29T01:13:32;5.20;;;1.60;;
15331;SDS011;7766;51.534;6.722;2024-03-29T01:15:58;2.00;;;1.37;;
15331;SDS011;7766;51.534;6.722;2024-03-29T01:18:24;4.97;;;1.33;;
15331;SDS011;7766;51.534;6.722;2024-03-29T01:20:50;7.03;;;1.67;;
15331;SDS011;7766;51.534;6.722;2024-03-29T01:23:16;5.83;;;1.70;;
15331;SDS011;7766;51.534;6.722;2024-03-29T01:25:41;5.43;;;2.00;;
15331;SDS011;7766;51.534;6.722;2024-03-29T01:28:07;6.00;;;2.00;;
15331;SDS011;7766;51.534;6.722;2024-03-29T01:30:33;6.40;;;1.83;;
15331;SDS011;7766;51.534;6.722;2024-03-29T01:32:59;5.83;;;2.23;;
15331;SDS011;7766;51.534;6.722;2024-03-29T01:35:25;8.37;;;2.07;;
15331;SDS011;7766;51.534;6.722;2024-03-29T01:37:51;6.20;;;1.83;;
15331;SDS011;7766;51.534;6.722;2024-03-29T01:40:17;6.83;;;2.00;;
15331;SDS011;7766;51.534;6.722;2024-03-29T01:42:42;8.47;;;2.30;;
15331;SDS011;7766;51.534;6.722;2024-03-29T01:45:08;3.57;;;1.13;;
15331;SDS011;7766;51.534;6.722;2024-03-29T01:47:35;4.63;;;1.83;;
15331;SDS011;7766;51.534;6.722;2024-03-29T01:50:00;4.83;;;1.40;;
15331;SDS011;7766;51.534;6.722;2024-03-29T01:52:26;2.97;;;1.30;;
15331;SDS011;7766;51.534;6.722;2024-03-29T01:54:53;4.07;;;1.30;;
15331;SDS011;7766;51.534;6.722;2024-03-29T01:57:19;5.67;;;1.70;;
15331;SDS011;7766;51.534;6.722;2024-03-29T01:59:45;2.90;;;1.30;;
15331;SDS011;7766;51.534;6.722;2024-03-29T02:02:12;3.60;;;1.30;;
15331;SDS011;7766;51.534;6.722;2024-03-29T02:04:38;5.73;;;2.03;;
15331;SDS011;7766;51.534;6.722;2024-03-29T02:07:06;9.07;;;2.03;;
15331;SDS011;7766;51.534;6.722;2024-03-29T02:09:32;5.50;;;2.00;;
15331;SDS011;7766;51.534;6.722;2024-03-29T02:11:58;5.67;;;2.30;;
15331;SDS011;7766;51.534;6.722;2024-03-29T02:14:24;8.20;;;2.90;;
15331;SDS011;7766;51.534;6.722;2024-03-29T02:16:50;10.90;;;3.67;;
15331;SDS011;7766;51.534;6.722;2024-03-29T02:19:16;10.93;;;3.93;;
15331;SDS011;7766;51.534;6.722;2024-03-29T02:21:42;6.03;;;2.07;;
15331;SDS011;7766;51.534;6.722;2024-03-29T02:24:09;5.10;;;1.60;;
15331;SDS011;7766;51.534;6.722;2024-03-29T02:26:35;5.33;;;1.47;;
15331;SDS011;7766;51.534;6.722;2024-03-29T02:29:06;2.97;;;1.40;;
15331;SDS011;7766;51.534;6.722;2024-03-29T02:31:32;6.00;;;1.50;;
15331;SDS011;7766;51.534;6.722;2024-03-29T02:33:57;5.07;;;1.77;;
15331;SDS011;7766;51.534;6.722;2024-03-29T02:36:23;9.77;;;3.77;;
15331;SDS011;7766;51.534;6.722;2024-03-29T02:38:49;17.60;;;5.27;;
15331;SDS011;7766;51.534;6.722;2024-03-29T02:41:15;11.83;;;3.93;;
15331;SDS011;7766;51.534;6.722;2024-03-29T02:43:41;9.00;;;3.03;;
15331;SDS011;7766;51.534;6.722;2024-03-29T02:46:07;12.43;;;3.77;;
15331;SDS011;7766;51.534;6.722;2024-03-29T02:48:32;10.43;;;3.93;;
15331;SDS011;7766;51.534;6.722;2024-03-29T02:50:58;7.60;;;3.07;;
15331;SDS011;7766;51.534;6.722;2024-03-29T02:53:23;7.83;;;2.80;;
15331;SDS011;7766;51.534;6.722;2024-03-29T02:55:49;5.87;;;2.10;;
15331;SDS011;7766;51.534;6.722;2024-03-29T02:58:15;5.90;;;1.87;;
15331;SDS011;7766;51.534;6.722;2024-03-29T03:00:40;4.67;;;1.40;;
15331;SDS011;7766;51.534;6.722;2024-03-29T03:03:06;3.60;;;1.10;;
15331;SDS011;7766;51.534;6.722;2024-03-29T03:05:32;2.67;;;0.97;;
15331;SDS011;7766;51.534;6.722;2024-03-29T03:07:58;3.17;;;1.10;;
15331;SDS011;7766;51.534;6.722;2024-03-29T03:10:46;2.70;;;1.00;;
15331;SDS011;7766;51.534;6.722;2024-03-29T03:13:21;4.00;;;1.40;;
15331;SDS011;7766;51.534;6.722;2024-03-29T03:15:47;3.30;;;1.13;;
15331;SDS011;7766;51.534;6.722;2024-03-29T03:18:12;2.23;;;1.03;;
15331;SDS011;7766;51.534;6.722;2024-03-29T03:20:38;3.83;;;1.20;;
15331;SDS011;7766;51.534;6.722;2024-03-29T03:23:04;3.23;;;1.47;;
15331;SDS011;7766;51.534;6.722;2024-03-29T03:25:30;5.77;;;1.50;;
15331;SDS011;7766;51.534;6.722;2024-03-29T03:27:56;8.97;;;1.20;;
15331;SDS011;7766;51.534;6.722;2024-03-29T03:30:22;3.53;;;1.40;;
15331;SDS011;7766;51.534;6.722;2024-03-29T03:32:48;3.77;;;1.07;;
15331;SDS011;7766;51.534;6.722;2024-03-29T03:35:14;1.30;;;0.83;;
15331;SDS011;7766;51.534;6.722;2024-03-29T03:37:40;1.60;;;1.20;;
15331;SDS011;7766;51.534;6.722;2024-03-29T03:40:05;5.27;;;1.40;;
15331;SDS011;7766;51.534;6.722;2024-03-29T03:42:32;2.37;;;1.40;;
15331;SDS011;7766;51.534;6.722;2024-03-29T03:44:58;3.03;;;1.33;;
15331;SDS011;7766;51.534;6.722;2024-03-29T03:47:24;5.67;;;1.63;;
15331;SDS011;7766;51.534;6.722;2024-03-29T03:49:50;5.67;;;1.80;;
15331;SDS011;7766;51.534;6.722;2024-03-29T03:52:16;3.87;;;1.43;;
15331;SDS011;7766;51.534;6.722;2024-03-29T03:54:41;1.93;;;1.20;;
15331;SDS011;7766;51.534;6.722;2024-03-29T03:57:07;3.20;;;1.13;;
15331;SDS011;7766;51.534;6.722;2024-03-29T03:59:33;3.03;;;1.23;;
15331;SDS011;7766;51.534;6.722;2024-03-29T04:01:59;3.63;;;1.40;;
15331;SDS011;7766;51.534;6.722;2024-03-29T04:04:25;5.00;;;1.50;;
15331;SDS011;7766;51.534;6.722;2024-03-29T04:06:51;5.70;;;1.00;;
15331;SDS011;7766;51.534;6.722;2024-03-29T04:09:17;2.67;;;1.10;;
15331;SDS011;7766;51.534;6.722;2024-03-29T04:11:43;1.53;;;0.97;;
15331;SDS011;7766;51.534;6.722;2024-03-29T04:14:09;2.50;;;1.13;;
15331;SDS011;7766;51.534;6.722;2024-03-29T04:16:35;3.83;;;1.10;;
15331;SDS011;7766;51.534;6.722;2024-03-29T04:19:01;2.60;;;1.10;;
15331;SDS011;7766;51.534;6.722;2024-03-29T04:21:28;3.03;;;1.13;;
15331;SDS011;7766;51.534;6.722;2024-03-29T04:23:53;3.30;;;1.20;;
15331;SDS011;7766;51.534;6.722;2024-03-29T04:26:19;1.90;;;1.40;;
15331;SDS011;7766;51.534;6.722;2024-03-29T04:28:45;3.23;;;1.20;;
15331;SDS011;7766;51.534;6.722;2024-03-29T04:31:11;4.30;;;0.77;;
15331;SDS011;7766;51.534;6.722;2024-03-29T04:33:37;9.13;;;1.10;;
15331;SDS011;7766;51.534;6.722;2024-03-29T04:36:03;4.27;;;0.90;;
15331;SDS011;7766;51.534;6.722;2024-03-29T04:38:29;3.63;;;1.23;;
15331;SDS011;7766;51.534;6.722;2024-03-29T04:40:55;3.97;;;1.33;;
15331;SDS011;7766;51.534;6.722;2024-03-29T04:43:22;1.57;;;1.03;;
15331;SDS011;7766;51.534;6.722;2024-03-29T04:45:49;5.80;;;1.30;;
15331;SDS011;7766;51.534;6.722;2024-03-29T04:48:15;4.50;;;1.50;;
15331;SDS011;7766;51.534;6.722;2024-03-29T04:50:41;6.17;;;1.87;;
15331;SDS011;7766;51.534;6.722;2024-03-29T04:53:07;9.17;;;2.00;;
15331;SDS011;7766;51.534;6.722;2024-03-29T04:55:33;6.33;;;2.13;;
15331;SDS011;7766;51.534;6.722;2024-03-29T04:57:59;6.77;;;2.33;;
15331;SDS011;7766;51.534;6.722;2024-03-29T05:00:25;8.37;;;2.33;;
15331;SDS011;7766;51.534;6.722;2024-03-29T05:02:51;11.43;;;2.30;;
15331;SDS011;7766;51.534;6.722;2024-03-29T05:05:17;4.63;;;1.87;;
15331;SDS011;7766;51.534;6.722;2024-03-29T05:07:43;5.73;;;2.70;;
15331;SDS011;7766;51.534;6.722;2024-03-29T05:10:09;7.73;;;2.20;;
15331;SDS011;7766;51.534;6.722;2024-03-29T05:12:35;3.20;;;1.67;;
15331;SDS011;7766;51.534;6.722;2024-03-29T05:15:01;4.23;;;1.73;;
15331;SDS011;7766;51.534;6.722;2024-03-29T05:17:27;4.50;;;1.43;;
15331;SDS011;7766;51.534;6.722;2024-03-29T05:19:53;2.77;;;1.10;;
15331;SDS011;7766;51.534;6.722;2024-03-29T05:22:19;5.20;;;1.10;;
15331;SDS011;7766;51.534;6.722;2024-03-29T05:24:45;2.90;;;1.30;;
15331;SDS011;7766;51.534;6.722;2024-03-29T05:27:11;2.37;;;1.10;;
15331;SDS011;7766;51.534;6.722;2024-03-29T05:29:37;1.97;;;0.80;;
15331;SDS011;7766;51.534;6.722;2024-03-29T05:32:03;6.43;;;1.27;;
15331;SDS011;7766;51.534;6.722;2024-03-29T05:34:29;1.30;;;0.90;;
15331;SDS011;7766;51.534;6.722;2024-03-29T05:36:55;3.67;;;1.20;;
15331;SDS011;7766;51.534;6.722;2024-03-29T05:39:20;3.03;;;1.00;;
15331;SDS011;7766;51.534;6.722;2024-03-29T05:41:46;3.23;;;0.93;;
15331;SDS011;7766;51.534;6.722;2024-03-29T05:44:12;2.57;;;1.00;;
15331;SDS011;7766;51.534;6.722;2024-03-29T05:46:38;3.77;;;1.00;;
15331;SDS011;7766;51.534;6.722;2024-03-29T05:49:05;1.93;;;0.90;;
15331;SDS011;7766;51.534;6.722;2024-03-29T05:51:31;2.70;;;1.13;;
15331;SDS011;7766;51.534;6.722;2024-03-29T05:53:58;2.10;;;1.00;;
15331;SDS011;7766;51.534;6.722;2024-03-29T05:56:24;3.43;;;1.50;;
15331;SDS011;7766;51.534;6.722;2024-03-29T05:58:50;3.13;;;1.20;;
15331;SDS011;7766;51.534;6.722;2024-03-29T06:01:16;4.80;;;1.53;;
15331;SDS011;7766;51.534;6.722;2024-03-29T06:03:42;4.20;;;1.50;;
15331;SDS011;7766;51.534;6.722;2024-03-29T06:06:08;4.47;;;1.40;;
15331;SDS011;7766;51.534;6.722;2024-03-29T06:08:42;2.20;;;1.20;;
15331;SDS011;7766;51.534;6.722;2024-03-29T06:11:08;1.80;;;1.20;;
15331;SDS011;7766;51.534;6.722;2024-03-29T06:13:34;5.90;;;1.67;;
15331;SDS011;7766;51.534;6.722;2024-03-29T06:16:19;2.33;;;1.33;;
15331;SDS011;7766;51.534;6.722;2024-03-29T06:19:04;4.83;;;1.37;;
15331;SDS011;7766;51.534;6.722;2024-03-29T06:21:30;2.37;;;1.33;;
15331;SDS011;7766;51.534;6.722;2024-03-29T06:24:07;3.70;;;1.23;;
15331;SDS011;7766;51.534;6.722;2024-03-29T06:26:40;4.87;;;1.40;;
15331;SDS011;7766;51.534;6.722;2024-03-29T06:29:06;2.50;;;1.33;;
15331;SDS011;7766;51.534;6.722;2024-03-29T06:31:35;4.53;;;1.60;;
15331;SDS011;7766;51.534;6.722;2024-03-29T06:34:01;3.73;;;1.83;;
15331;SDS011;7766;51.534;6.722;2024-03-29T06:36:27;3.80;;;1.80;;
15331;SDS011;7766;51.534;6.722;2024-03-29T06:38:55;3.43;;;1.10;;
15331;SDS011;7766;51.534;6.722;2024-03-29T06:41:21;5.00;;;0.83;;
15331;SDS011;7766;51.534;6.722;2024-03-29T06:43:47;4.37;;;1.50;;
15331;SDS011;7766;51.534;6.722;2024-03-29T06:46:13;4.67;;;1.07;;
15331;SDS011;7766;51.534;6.722;2024-03-29T06:48:39;3.83;;;0.93;;
15331;SDS011;7766;51.534;6.722;2024-03-29T06:51:05;4.13;;;1.10;;
15331;SDS011;7766;51.534;6.722;2024-03-29T06:53:31;2.93;;;1.10;;
15331;SDS011;7766;51.534;6.722;2024-03-29T06:55:59;3.83;;;1.30;;
15331;SDS011;7766;51.534;6.722;2024-03-29T06:58:26;6.10;;;1.00;;
15331;SDS011;7766;51.534;6.722;2024-03-29T07:00:52;1.67;;;1.13;;
15331;SDS011;7766;51.534;6.722;2024-03-29T07:03:19;3.00;;;1.57;;
15331;SDS011;7766;51.534;6.722;2024-03-29T07:05:45;2.87;;;1.00;;
15331;SDS011;7766;51.534;6.722;2024-03-29T07:08:11;5.27;;;1.30;;
15331;SDS011;7766;51.534;6.722;2024-03-29T07:10:37;3.53;;;1.30;;
15331;SDS011;7766;51.534;6.722;2024-03-29T07:13:03;2.87;;;1.23;;
15331;SDS011;7766;51.534;6.722;2024-03-29T07:15:29;4.47;;;1.50;;
15331;SDS011;7766;51.534;6.722;2024-03-29T07:17:55;5.10;;;2.17;;
15331;SDS011;7766;51.534;6.722;2024-03-29T07:20:21;5.03;;;2.80;;
15331;SDS011;7766;51.534;6.722;2024-03-29T07:22:47;4.53;;;2.90;;
15331;SDS011;7766;51.534;6.722;2024-03-29T07:25:13;6.53;;;2.70;;
15331;SDS011;7766;51.534;6.722;2024-03-29T07:27:38;7.60;;;2.50;;
15331;SDS011;7766;51.534;6.722;2024-03-29T07:30:04;5.20;;;2.50;;
15331;SDS011;7766;51.534;6.722;2024-03-29T07:32:32;5.53;;;2.07;;
15331;SDS011;7766;51.534;6.722;2024-03-29T07:34:58;5.53;;;2.43;;
15331;SDS011;7766;51.534;6.722;2024-03-29T07:37:24;5.53;;;1.87;;
15331;SDS011;7766;51.534;6.722;2024-03-29T07:39:50;7.43;;;2.40;;
15331;SDS011;7766;51.534;6.722;2024-03-29T07:42:16;3.83;;;2.10;;
15331;SDS011;7766;51.534;6.722;2024-03-29T07:44:43;6.93;;;2.60;;
15331;SDS011;7766;51.534;6.722;2024-03-29T07:47:09;10.97;;;3.13;;
15331;SDS011;7766;51.534;6.722;2024-03-29T07:49:38;6.57;;;2.40;;
15331;SDS011;7766;51.534;6.722;2024-03-29T07:52:04;8.40;;;2.40;;
15331;SDS011;7766;51.534;6.722;2024-03-29T07:54:31;3.30;;;2.50;;
15331;SDS011;7766;51.534;6.722;2024-03-29T07:56:57;5.80;;;2.00;;
15331;SDS011;7766;51.534;6.722;2024-03-29T07:59:22;3.23;;;2.00;;
15331;SDS011;7766;51.534;6.722;2024-03-29T08:01:48;2.50;;;1.80;;
15331;SDS011;7766;51.534;6.722;2024-03-29T08:04:15;5.23;;;1.97;;
15331;SDS011;7766;51.534;6.722;2024-03-29T08:06:41;5.47;;;2.07;;
15331;SDS011;7766;51.534;6.722;2024-03-29T08:09:06;6.50;;;2.23;;
15331;SDS011;7766;51.534;6.722;2024-03-29T08:11:32;7.70;;;2.10;;
15331;SDS011;7766;51.534;6.722;2024-03-29T08:13:57;6.23;;;2.13;;
15331;SDS011;7766;51.534;6.722;2024-03-29T08:16:23;5.77;;;2.10;;
15331;SDS011;7766;51.534;6.722;2024-03-29T08:18:49;5.20;;;2.13;;
15331;SDS011;7766;51.534;6.722;2024-03-29T08:21:15;4.93;;;1.90;;
15331;SDS011;7766;51.534;6.722;2024-03-29T08:23:41;2.80;;;1.50;;
15331;SDS011;7766;51.534;6.722;2024-03-29T08:26:11;4.77;;;2.10;;
15331;SDS011;7766;51.534;6.722;2024-03-29T08:28:37;2.97;;;1.80;;
15331;SDS011;7766;51.534;6.722;2024-03-29T08:31:04;2.23;;;1.67;;
15331;SDS011;7766;51.534;6.722;2024-03-29T08:33:31;3.93;;;1.70;;
15331;SDS011;7766;51.534;6.722;2024-03-29T08:35:57;4.43;;;2.03;;
15331;SDS011;7766;51.534;6.722;2024-03-29T08:38:23;5.07;;;2.30;;
15331;SDS011;7766;51.534;6.722;2024-03-29T08:40:49;8.00;;;2.20;;
15331;SDS011;7766;51.534;6.722;2024-03-29T08:43:15;4.87;;;2.17;;
15331;SDS011;7766;51.534;6.722;2024-03-29T08:45:44;7.10;;;1.80;;
15331;SDS011;7766;51.534;6.722;2024-03-29T08:48:10;5.60;;;2.07;;
15331;SDS011;7766;51.534;6.722;2024-03-29T08:50:36;4.97;;;2.50;;
15331;SDS011;7766;51.534;6.722;2024-03-29T08:53:02;8.70;;;2.50;;
15331;SDS011;7766;51.534;6.722;2024-03-29T08:55:32;3.57;;;2.63;;
15331;SDS011;7766;51.534;6.722;2024-03-29T08:57:58;3.10;;;2.47;;
15331;SDS011;7766;51.534;6.722;2024-03-29T09:00:25;5.00;;;2.30;;
15331;SDS011;7766;51.534;6.722;2024-03-29T09:02:51;3.30;;;1.53;;
15331;SDS011;7766;51.534;6.722;2024-03-29T09:05:17;4.00;;;1.57;;
15331;SDS011;7766;51.534;6.722;2024-03-29T09:07:42;4.33;;;1.80;;
15331;SDS011;7766;51.534;6.722;2024-03-29T09:10:08;3.37;;;2.00;;
15331;SDS011;7766;51.534;6.722;2024-03-29T09:12:34;2.93;;;1.63;;
15331;SDS011;7766;51.534;6.722;2024-03-29T09:15:00;2.93;;;1.73;;
15331;SDS011;7766;51.534;6.722;2024-03-29T09:17:26;4.27;;;1.60;;
15331;SDS011;7766;51.534;6.722;2024-03-29T09:19:52;2.53;;;1.73;;
15331;SDS011;7766;51.534;6.722;2024-03-29T09:22:18;5.43;;;1.60;;
15331;SDS011;7766;51.534;6.722;2024-03-29T09:24:44;3.60;;;1.50;;
15331;SDS011;7766;51.534;6.722;2024-03-29T09:27:09;2.67;;;1.60;;
15331;SDS011;7766;51.534;6.722;2024-03-29T09:29:35;2.40;;;1.50;;
15331;SDS011;7766;51.534;6.722;2024-03-29T09:32:01;4.63;;;1.87;;
15331;SDS011;7766;51.534;6.722;2024-03-29T09:34:27;4.60;;;1.70;;
15331;SDS011;7766;51.534;6.722;2024-03-29T09:36:53;3.37;;;2.23;;
15331;SDS011;7766;51.534;6.722;2024-03-29T09:39:19;3.07;;;2.00;;
15331;SDS011;7766;51.534;6.722;2024-03-29T09:41:45;4.80;;;2.17;;
15331;SDS011;7766;51.534;6.722;2024-03-29T09:44:11;5.03;;;2.40;;
15331;SDS011;7766;51.534;6.722;2024-03-29T09:46:37;3.97;;;2.23;;
15331;SDS011;7766;51.534;6.722;2024-03-29T09:49:05;4.13;;;2.30;;
15331;SDS011;7766;51.534;6.722;2024-03-29T09:51:32;3.57;;;1.90;;
15331;SDS011;7766;51.534;6.722;2024-03-29T09:53:59;3.93;;;1.90;;
15331;SDS011;7766;51.534;6.722;2024-03-29T09:56:25;3.37;;;2.10;;
15331;SDS011;7766;51.534;6.722;2024-03-29T09:58:52;2.80;;;2.10;;
15331;SDS011;7766;51.534;6.722;2024-03-29T10:01:18;5.67;;;2.50;;
15331;SDS011;7766;51.534;6.722;2024-03-29T10:03:50;4.87;;;2.93;;
15331;SDS011;7766;51.534;6.722;2024-03-29T10:06:16;7.20;;;3.67;;
15331;SDS011;7766;51.534;6.722;2024-03-29T10:08:44;4.43;;;3.33;;
15331;SDS011;7766;51.534;6.722;2024-03-29T10:11:10;9.07;;;3.33;;
15331;SDS011;7766;51.534;6.722;2024-03-29T10:13:36;9.67;;;3.60;;
15331;SDS011;7766;51.534;6.722;2024-03-29T10:16:03;6.70;;;3.40;;
15331;SDS011;7766;51.534;6.722;2024-03-29T10:18:30;7.77;;;3.50;;
15331;SDS011;7766;51.534;6.722;2024-03-29T10:23:27;5.53;;;3.23;;
15331;SDS011;7766;51.534;6.722;2024-03-29T10:25:53;5.73;;;3.47;;
15331;SDS011;7766;51.534;6.722;2024-03-29T10:28:19;5.37;;;3.20;;
15331;SDS011;7766;51.534;6.722;2024-03-29T10:30:45;5.90;;;2.87;;
15331;SDS011;7766;51.534;6.722;2024-03-29T10:33:13;4.43;;;2.83;;
15331;SDS011;7766;51.534;6.722;2024-03-29T10:35:43;5.53;;;3.83;;
15331;SDS011;7766;51.534;6.722;2024-03-29T10:38:09;3.10;;;2.10;;
15331;SDS011;7766;51.534;6.722;2024-03-29T10:40:39;3.70;;;2.10;;
15331;SDS011;7766;51.534;6.722;2024-03-29T10:43:08;4.30;;;1.70;;
15331;SDS011;7766;51.534;6.722;2024-03-29T10:45:37;6.50;;;2.57;;
15331;SDS011;7766;51.534;6.722;2024-03-29T10:48:04;3.13;;;2.00;;
15331;SDS011;7766;51.534;6.722;2024-03-29T10:50:36;4.07;;;1.60;;
15331;SDS011;7766;51.534;6.722;2024-03-29T10:53:04;4.13;;;2.03;;
15331;SDS011;7766;51.534;6.722;2024-03-29T10:55:32;2.93;;;1.50;;
15331;SDS011;7766;51.534;6.722;2024-03-29T10:58:00;5.53;;;1.77;;
15331;SDS011;7766;51.534;6.722;2024-03-29T11:00:27;10.00;;;5.80;;
15331;SDS011;7766;51.534;6.722;2024-03-29T11:05:28;3.33;;;1.33;;
15331;SDS011;7766;51.534;6.722;2024-03-29T11:07:55;2.10;;;1.03;;
15331;SDS011;7766;51.534;6.722;2024-03-29T11:10:33;2.47;;;1.17;;
15331;SDS011;7766;51.534;6.722;2024-03-29T11:13:11;2.73;;;1.60;;
15331;SDS011;7766;51.534;6.722;2024-03-29T11:15:40;2.47;;;1.60;;
15331;SDS011;7766;51.534;6.722;2024-03-29T11:18:06;3.27;;;1.80;;
15331;SDS011;7766;51.534;6.722;2024-03-29T11:20:33;2.73;;;1.30;;
15331;SDS011;7766;51.534;6.722;2024-03-29T11:23:06;3.73;;;1.40;;
15331;SDS011;7766;51.534;6.722;2024-03-29T11:25:44;3.67;;;1.37;;
15331;SDS011;7766;51.534;6.722;2024-03-29T11:28:12;2.10;;;1.50;;
15331;SDS011;7766;51.534;6.722;2024-03-29T11:30:42;1.67;;;0.90;;
15331;SDS011;7766;51.534;6.722;2024-03-29T11:33:30;1.73;;;1.10;;
15331;SDS011;7766;51.534;6.722;2024-03-29T11:35:56;2.97;;;1.23;;
15331;SDS011;7766;51.534;6.722;2024-03-29T11:38:30;1.57;;;1.20;;
15331;SDS011;7766;51.534;6.722;2024-03-29T11:41:13;1.83;;;1.07;;
15331;SDS011;7766;51.534;6.722;2024-03-29T11:43:40;4.87;;;1.40;;
15331;SDS011;7766;51.534;6.722;2024-03-29T11:46:08;4.30;;;1.53;;
15331;SDS011;7766;51.534;6.722;2024-03-29T11:48:34;3.30;;;1.80;;
15331;SDS011;7766;51.534;6.722;2024-03-29T11:51:01;1.00;;;0.90;;
15331;SDS011;7766;51.534;6.722;2024-03-29T11:53:31;2.90;;;1.53;;
15331;SDS011;7766;51.534;6.722;2024-03-29T11:55:58;1.77;;;1.00;;
15331;SDS011;7766;51.534;6.722;2024-03-29T11:58:24;2.03;;;0.80;;
15331;SDS011;7766;51.534;6.722;2024-03-29T12:00:51;1.90;;;1.03;;
15331;SDS011;7766;51.534;6.722;2024-03-29T12:03:17;1.60;;;0.70;;
15331;SDS011;7766;51.534;6.722;2024-03-29T12:05:45;3.03;;;1.03;;
15331;SDS011;7766;51.534;6.722;2024-03-29T12:08:13;2.17;;;0.80;;
15331;SDS011;7766;51.534;6.722;2024-03-29T12:10:39;2.57;;;0.77;;
15331;SDS011;7766;51.534;6.722;2024-03-29T12:13:05;1.33;;;0.70;;
15331;SDS011;7766;51.534;6.722;2024-03-29T12:15:31;0.90;;;0.67;;
15331;SDS011;7766;51.534;6.722;2024-03-29T12:17:58;1.73;;;0.70;;
15331;SDS011;7766;51.534;6.722;2024-03-29T12:20:24;1.23;;;0.50;;
15331;SDS011;7766;51.534;6.722;2024-03-29T12:22:51;3.40;;;0.90;;
15331;SDS011;7766;51.534;6.722;2024-03-29T12:25:20;1.73;;;0.70;;
15331;SDS011;7766;51.534;6.722;2024-03-29T12:27:46;1.40;;;0.80;;
15331;SDS011;7766;51.534;6.722;2024-03-29T12:30:13;1.30;;;0.80;;
15331;SDS011;7766;51.534;6.722;2024-03-29T12:32:39;2.13;;;1.20;;
15331;SDS011;7766;51.534;6.722;2024-03-29T12:35:08;1.83;;;1.00;;
15331;SDS011;7766;51.534;6.722;2024-03-29T12:37:35;3.50;;;1.13;;
15331;SDS011;7766;51.534;6.722;2024-03-29T12:40:01;1.50;;;1.00;;
15331;SDS011;7766;51.534;6.722;2024-03-29T12:42:36;3.03;;;1.43;;
15331;SDS011;7766;51.534;6.722;2024-03-29T12:45:05;2.43;;;1.40;;
15331;SDS011;7766;51.534;6.722;2024-03-29T12:47:32;1.90;;;1.10;;
15331;SDS011;7766;51.534;6.722;2024-03-29T12:49:59;5.17;;;1.40;;
15331;SDS011;7766;51.534;6.722;2024-03-29T12:52:25;3.20;;;1.27;;
15331;SDS011;7766;51.534;6.722;2024-03-29T12:54:51;3.00;;;1.37;;
15331;SDS011;7766;51.534;6.722;2024-03-29T12:57:17;1.50;;;1.40;;
15331;SDS011;7766;51.534;6.722;2024-03-29T12:59:43;3.97;;;1.10;;
15331;SDS011;7766;51.534;6.722;2024-03-29T13:02:11;1.83;;;1.00;;
15331;SDS011;7766;51.534;6.722;2024-03-29T13:04:38;1.07;;;0.90;;
15331;SDS011;7766;51.534;6.722;2024-03-29T13:07:08;1.77;;;0.97;;
15331;SDS011;7766;51.534;6.722;2024-03-29T13:09:34;2.63;;;0.90;;
15331;SDS011;7766;51.534;6.722;2024-03-29T13:12:00;2.23;;;0.80;;
15331;SDS011;7766;51.534;6.722;2024-03-29T13:14:26;4.03;;;1.00;;
15331;SDS011;7766;51.534;6.722;2024-03-29T13:16:52;2.03;;;0.93;;
15331;SDS011;7766;51.534;6.722;2024-03-29T13:19:19;0.73;;;0.70;;
15331;SDS011;7766;51.534;6.722;2024-03-29T13:21:45;1.63;;;0.77;;
15331;SDS011;7766;51.534;6.722;2024-03-29T13:24:11;2.07;;;0.83;;
15331;SDS011;7766;51.534;6.722;2024-03-29T13:26:37;2.57;;;1.00;;
15331;SDS011;7766;51.534;6.722;2024-03-29T13:29:03;0.90;;;0.80;;
15331;SDS011;7766;51.534;6.722;2024-03-29T13:31:29;4.57;;;3.40;;
15331;SDS011;7766;51.534;6.722;2024-03-29T13:33:56;1.17;;;0.60;;
15331;SDS011;7766;51.534;6.722;2024-03-29T13:36:29;2.27;;;0.47;;
15331;SDS011;7766;51.534;6.722;2024-03-29T13:38:55;1.73;;;0.50;;
15331;SDS011;7766;51.534;6.722;2024-03-29T13:41:20;1.03;;;0.53;;
15331;SDS011;7766;51.534;6.722;2024-03-29T13:43:46;1.33;;;0.57;;
15331;SDS011;7766;51.534;6.722;2024-03-29T13:46:12;2.83;;;0.73;;
15331;SDS011;7766;51.534;6.722;2024-03-29T13:48:37;1.43;;;0.57;;
15331;SDS011;7766;51.534;6.722;2024-03-29T13:51:04;1.93;;;0.70;;
15331;SDS011;7766;51.534;6.722;2024-03-29T13:53:32;14.20;;;6.23;;
15331;SDS011;7766;51.534;6.722;2024-03-29T13:56:00;0.90;;;0.40;;
15331;SDS011;7766;51.534;6.722;2024-03-29T13:58:28;0.80;;;0.37;;
15331;SDS011;7766;51.534;6.722;2024-03-29T14:00:54;2.60;;;0.70;;
15331;SDS011;7766;51.534;6.722;2024-03-29T14:03:21;1.20;;;0.47;;
15331;SDS011;7766;51.534;6.722;2024-03-29T14:05:47;1.30;;;0.50;;
15331;SDS011;7766;51.534;6.722;2024-03-29T14:08:14;1.87;;;0.40;;
15331;SDS011;7766;51.534;6.722;2024-03-29T14:10:39;4.23;;;0.60;;
15331;SDS011;7766;51.534;6.722;2024-03-29T14:13:04;3.23;;;0.90;;
15331;SDS011;7766;51.534;6.722;2024-03-29T14:15:31;1.00;;;0.70;;
15331;SDS011;7766;51.534;6.722;2024-03-29T14:17:58;2.13;;;0.63;;
15331;SDS011;7766;51.534;6.722;2024-03-29T14:20:23;2.73;;;0.50;;
15331;SDS011;7766;51.534;6.722;2024-03-29T14:22:49;1.00;;;0.50;;
15331;SDS011;7766;51.534;6.722;2024-03-29T14:25:19;1.23;;;0.90;;
15331;SDS011;7766;51.534;6.722;2024-03-29T14:27:45;1.33;;;0.47;;
15331;SDS011;7766;51.534;6.722;2024-03-29T14:30:19;1.00;;;0.47;;
15331;SDS011;7766;51.534;6.722;2024-03-29T14:32:46;0.60;;;0.30;;
15331;SDS011;7766;51.534;6.722;2024-03-29T14:35:14;1.00;;;0.30;;
15331;SDS011;7766;51.534;6.722;2024-03-29T14:37:42;0.83;;;0.40;;
15331;SDS011;7766;51.534;6.722;2024-03-29T14:40:08;1.60;;;0.57;;
15331;SDS011;7766;51.534;6.722;2024-03-29T14:42:34;1.57;;;0.40;;
15331;SDS011;7766;51.534;6.722;2024-03-29T14:45:03;0.60;;;0.30;;
15331;SDS011;7766;51.534;6.722;2024-03-29T14:47:29;1.47;;;1.17;;
15331;SDS011;7766;51.534;6.722;2024-03-29T14:49:55;1.17;;;0.40;;
15331;SDS011;7766;51.534;6.722;2024-03-29T14:52:21;0.63;;;0.40;;
15331;SDS011;7766;51.534;6.722;2024-03-29T14:54:47;0.73;;;0.40;;
15331;SDS011;7766;51.534;6.722;2024-03-29T14:57:13;1.77;;;0.53;;
15331;SDS011;7766;51.534;6.722;2024-03-29T14:59:39;1.17;;;0.40;;
15331;SDS011;7766;51.534;6.722;2024-03-29T15:02:05;0.70;;;0.50;;